Time;durP1;ratioP1;P1;durP2;ratioP2;P2;SDS_P1;SDS_P2;PMS_P1;PMS_P2;Temp;Humidity;BMP_temperature;BMP_pressure;BME280_temperature;BME280_humidity;BME280_pressure;Samples;Min_cycle;Max_cycle;Signal;HPM_P1;HPM_P2
2022/06/09 02:43:27;;;;;;;16.42;13.45;;;;;;;18.10;90.45;98413.83;1855687;77;23321;-35
2022/06/09 02:45:53;;;;;;;16.32;11.90;;;;;;;18.07;90.04;98418.63;1828032;78;21581;-35
2022/06/09 02:48:20;;;;;;;17.60;13.00;;;;;;;18.05;90.20;98413.95;1827961;78;21061;-34
2022/06/09 02:50:47;;;;;;;16.02;12.40;;;;;;;18.06;89.98;98415.61;1828137;78;21038;-35
2022/06/09 02:53:14;;;;;;;18.35;12.30;;;;;;;18.05;89.99;98409.46;1828124;78;21034;-35
2022/06/09 02:55:41;;;;;;;14.70;11.85;;;;;;;18.05;89.71;98400.15;1829350;78;20963;-34
2022/06/09 02:58:08;;;;;;;16.70;12.53;;;;;;;18.07;89.83;98400.00;1829600;78;20990;-34
2022/06/09 03:00:34;;;;;;;13.72;12.30;;;;;;;18.06;89.59;98392.99;1829486;78;20994;-34
2022/06/09 03:03:05;;;;;;;16.23;12.47;;;;;;;18.05;89.49;98388.69;1829576;78;21420;-35
2022/06/09 03:05:35;;;;;;;15.85;11.68;;;;;;;18.01;89.29;98384.16;1829359;78;20991;-34
2022/06/09 03:08:02;;;;;;;15.48;11.08;;;;;;;17.99;89.51;98382.98;1829321;78;20986;-35
2022/06/09 03:10:28;;;;;;;19.73;10.50;;;;;;;17.99;89.45;98381.66;1829429;78;21490;-34
2022/06/09 03:12:54;;;;;;;10.63;9.53;;;;;;;17.98;89.55;98390.61;1829418;78;20975;-36
2022/06/09 03:15:23;;;;;;;13.58;10.00;;;;;;;17.97;88.98;98396.08;1829462;78;21478;-35
2022/06/09 03:17:50;;;;;;;13.83;9.35;;;;;;;17.93;88.66;98399.54;1829373;78;21093;-35
2022/06/09 03:20:19;;;;;;;;;;;;;;;17.89;88.60;98400.84;1832088;78;20954;-35
2022/06/09 03:22:45;;;;;;;13.15;10.68;;;;;;;17.84;88.67;98396.44;1829113;78;20108;-36
2022/06/09 03:25:11;;;;;;;13.45;10.38;;;;;;;17.86;88.47;98394.48;1829329;78;20951;-35
2022/06/09 03:27:37;;;;;;;15.25;10.88;;;;;;;17.87;88.50;98401.50;1829313;78;20978;-36
2022/06/09 03:30:05;;;;;;;14.85;10.98;;;;;;;17.84;88.42;98393.78;1829270;78;21029;-35
2022/06/09 03:32:30;;;;;;;;;;;;;;;17.87;88.38;98391.36;1831963;78;21033;-35
2022/06/09 03:34:56;;;;;;;14.47;12.05;;;;;;;17.85;88.69;98387.52;1829399;78;20101;-36
2022/06/09 03:37:23;;;;;;;16.25;13.55;;;;;;;17.88;88.10;98381.87;1829297;78;21071;-35
2022/06/09 03:39:49;;;;;;;16.42;14.65;;;;;;;17.92;88.38;98378.41;1829462;78;21032;-35
2022/06/09 03:42:15;;;;;;;19.95;16.07;;;;;;;17.96;88.24;98374.47;1822765;78;21135;-35
2022/06/09 03:44:41;;;;;;;18.23;15.55;;;;;;;17.98;87.97;98362.68;1813221;79;21112;-36
2022/06/09 03:47:07;;;;;;;17.12;14.00;;;;;;;17.99;88.04;98356.38;1813163;79;21031;-36
2022/06/09 03:49:33;;;;;;;24.15;14.70;;;;;;;18.02;87.93;98354.72;1813400;79;21023;-36
2022/06/09 03:51:59;;;;;;;17.10;13.38;;;;;;;18.01;88.11;98353.06;1813199;79;20976;-36
2022/06/09 03:54:24;;;;;;;12.73;11.00;;;;;;;18.08;87.78;98351.10;1812739;79;20972;-35
2022/06/09 03:56:51;;;;;;;12.65;10.63;;;;;;;18.10;87.90;98366.41;1812602;79;21417;-35
2022/06/09 03:59:17;;;;;;;12.47;9.50;;;;;;;18.13;87.69;98380.23;1812786;79;20991;-35
2022/06/09 04:01:43;;;;;;;11.70;9.43;;;;;;;18.18;87.88;98379.79;1812565;79;20991;-36
2022/06/09 04:04:10;;;;;;;12.80;9.65;;;;;;;18.21;87.89;98386.14;1812725;79;21003;-36
2022/06/09 04:06:37;;;;;;;9.58;8.03;;;;;;;18.23;87.80;98397.45;1812569;79;21006;-36
2022/06/09 04:09:04;;;;;;;8.60;7.72;;;;;;;18.25;87.56;98421.26;1812603;79;20986;-36
2022/06/09 04:11:30;;;;;;;8.55;7.62;;;;;;;18.24;87.10;98437.70;1812835;78;21030;-35
2022/06/09 04:13:56;;;;;;;8.28;6.65;;;;;;;18.26;86.92;98451.68;1812529;79;21536;-35
2022/06/09 04:16:35;;;;;;;8.00;7.20;;;;;;;18.27;86.58;98467.17;1812597;79;21023;-36
2022/06/09 04:19:07;;;;;;;9.38;8.40;;;;;;;18.24;86.21;98481.61;1812626;79;21492;-35
2022/06/09 04:21:34;;;;;;;14.43;9.65;;;;;;;18.21;86.29;98490.75;1812660;79;21022;-35
2022/06/09 04:24:00;;;;;;;15.90;10.93;;;;;;;18.16;87.74;98516.14;1812855;79;20978;-35
2022/06/09 04:26:31;;;;;;;19.60;13.60;;;;;;;18.13;88.19;98514.61;1812565;79;20986;-35
2022/06/09 04:28:56;;;;;;;17.77;13.80;;;;;;;18.00;90.49;98506.17;1812644;79;20959;-35
2022/06/09 04:31:22;;;;;;;20.23;13.13;;;;;;;17.96;90.88;98507.47;1812732;78;20979;-36
2022/06/09 04:33:49;;;;;;;17.42;12.70;;;;;;;17.84;92.71;98512.13;1812718;79;20971;-35
2022/06/09 04:36:17;;;;;;;16.17;11.20;;;;;;;17.82;91.74;98496.81;1812695;79;21088;-35
2022/06/09 04:38:43;;;;;;;14.20;9.50;;;;;;;17.79;92.33;98498.44;1812637;79;20979;-35
2022/06/09 04:41:11;;;;;;;13.80;9.25;;;;;;;17.71;92.39;98487.73;1812917;79;20959;-35
2022/06/09 04:43:39;;;;;;;10.40;9.30;;;;;;;17.71;93.08;98485.08;1816730;79;21595;-35
2022/06/09 04:46:07;;;;;;;13.32;10.13;;;;;;;17.68;93.62;98482.20;1817574;79;21457;-35
2022/06/09 04:48:35;;;;;;;12.10;9.68;;;;;;;17.70;93.31;98476.73;1817654;79;20984;-35
2022/06/09 04:51:01;;;;;;;13.62;9.83;;;;;;;17.68;94.39;98468.08;1817453;79;20991;-35
2022/06/09 04:53:27;;;;;;;10.58;9.30;;;;;;;17.69;94.08;98464.45;1817416;79;20987;-36
2022/06/09 04:55:53;;;;;;;12.45;9.28;;;;;;;17.69;94.70;98451.98;1817434;79;20987;-35
2022/06/09 04:58:19;;;;;;;13.78;9.23;;;;;;;17.70;94.17;98443.50;1817443;79;21047;-37
2022/06/09 05:00:44;;;;;;;10.00;8.40;;;;;;;17.70;94.76;98442.17;1817494;79;20987;-35
2022/06/09 05:03:13;;;;;;;10.23;8.55;;;;;;;17.65;96.79;98442.14;1817407;79;20987;-37
2022/06/09 05:05:43;;;;;;;11.70;8.55;;;;;;;17.66;95.67;98444.30;1817417;79;21492;-35
2022/06/09 05:08:11;;;;;;;12.25;9.03;;;;;;;17.68;95.86;98436.17;1817486;79;21033;-35
2022/06/09 05:10:36;;;;;;;12.05;8.50;;;;;;;17.71;96.24;98427.91;1817371;79;20967;-35
2022/06/09 05:13:05;;;;;;;13.08;7.83;;;;;;;17.70;97.17;98422.23;1817505;79;21015;-35
2022/06/09 05:15:30;;;;;;;9.70;7.08;;;;;;;17.70;97.26;98414.25;1817027;79;21014;-35
2022/06/09 05:17:58;;;;;;;12.15;7.62;;;;;;;17.72;96.51;98417.13;1817287;79;21562;-36
2022/06/09 05:20:24;;;;;;;8.70;7.25;;;;;;;17.74;95.86;98407.67;1817387;79;20983;-35
2022/06/09 05:22:51;;;;;;;7.12;6.33;;;;;;;17.77;95.80;98404.69;1817596;79;21018;-36
2022/06/09 05:25:17;;;;;;;9.73;6.80;;;;;;;17.79;95.32;98394.25;1817580;79;21026;-35
2022/06/09 05:27:44;;;;;;;8.18;6.97;;;;;;;17.81;95.36;98387.46;1817767;79;20974;-35
2022/06/09 05:30:21;;;;;;;8.73;6.40;;;;;;;17.84;94.71;98387.13;1817534;79;20979;-36
2022/06/09 05:32:48;;;;;;;9.78;6.58;;;;;;;17.83;94.42;98383.64;1817335;79;21417;-35
2022/06/09 05:35:15;;;;;;;11.30;6.80;;;;;;;17.87;94.70;98388.70;1817502;79;21558;-35
2022/06/09 05:46:01;;;;;;;9.03;5.55;;;;;;;17.99;95.54;98401.60;1817381;79;20963;-35
2022/06/09 05:48:27;;;;;;;5.83;5.17;;;;;;;18.09;95.23;98408.66;1817806;79;21030;-36
2022/06/09 05:50:54;;;;;;;7.80;5.60;;;;;;;18.19;95.01;98408.91;1817376;79;20971;-35
2022/06/09 05:53:21;;;;;;;5.60;5.10;;;;;;;18.30;94.77;98406.97;1817522;79;20991;-35
2022/06/09 05:55:47;;;;;;;7.33;6.10;;;;;;;18.38;94.77;98402.54;1817613;79;21385;-35
2022/06/09 05:58:13;;;;;;;6.62;5.65;;;;;;;18.49;95.33;98404.61;1817348;79;20998;-36
2022/06/09 06:00:41;;;;;;;7.15;6.42;;;;;;;18.61;95.28;98402.03;1817383;79;21063;-35
2022/06/09 06:03:11;;;;;;;6.42;5.80;;;;;;;18.77;94.74;98401.26;1817338;79;20975;-37
2022/06/09 06:08:20;;;;;;;10.48;6.10;;;;;;;18.91;94.47;98411.86;1817348;79;20963;-37
2022/06/09 06:10:46;;;;;;;11.65;6.97;;;;;;;18.94;94.15;98419.03;1817381;79;20983;-36
2022/06/09 06:13:13;;;;;;;11.70;7.55;;;;;;;18.94;94.19;98418.20;1817384;79;20959;-37
2022/06/09 06:15:39;;;;;;;14.18;8.28;;;;;;;18.99;93.89;98419.39;1817370;79;21041;-36
2022/06/09 06:18:06;;;;;;;11.70;8.45;;;;;;;19.01;94.41;98423.70;1817366;79;20982;-35
2022/06/09 06:20:34;;;;;;;16.37;8.85;;;;;;;19.00;93.90;98429.55;1817487;79;21510;-35
2022/06/09 06:22:59;;;;;;;;;;;;;;;19.02;94.31;98438.72;1819996;79;20956;-36
2022/06/09 06:25:26;;;;;;;14.60;9.53;;;;;;;19.01;94.57;98439.22;1817357;79;20154;-36
2022/06/09 06:27:53;;;;;;;15.28;10.55;;;;;;;19.05;93.74;98440.56;1817479;79;20990;-35
2022/06/09 06:30:21;;;;;;;23.00;10.90;;;;;;;19.09;94.06;98441.08;1817525;79;20974;-34
2022/06/09 06:32:47;;;;;;;16.85;11.75;;;;;;;19.10;93.45;98434.27;1817421;79;21436;-36
2022/06/09 06:35:14;;;;;;;17.40;12.70;;;;;;;19.13;93.92;98439.76;1817421;79;21483;-36
2022/06/09 06:37:40;;;;;;;22.27;12.15;;;;;;;19.14;93.44;98436.94;1817346;79;20975;-36
2022/06/09 06:40:09;;;;;;;18.90;12.95;;;;;;;19.18;93.62;98434.28;1817427;79;20971;-37
2022/06/09 06:42:35;;;;;;;16.75;12.82;;;;;;;19.24;93.69;98428.80;1815057;79;21046;-35
2022/06/09 06:45:01;;;;;;;19.48;13.30;;;;;;;19.29;93.51;98424.33;1807095;79;20991;-35
2022/06/09 06:47:27;;;;;;;18.82;13.13;;;;;;;19.32;93.12;98421.36;1807209;79;21702;-36
2022/06/09 06:49:52;;;;;;;17.80;15.20;;;;;;;19.35;92.92;98415.67;1807223;79;21496;-37
2022/06/09 06:52:18;;;;;;;15.93;14.15;;;;;;;19.36;92.70;98425.36;1807127;79;21477;-36
2022/06/09 06:54:44;;;;;;;19.82;13.75;;;;;;;19.32;92.97;98424.84;1807150;78;21453;-36
2022/06/09 06:57:10;;;;;;;20.35;13.88;;;;;;;19.32;92.64;98425.34;1807389;79;21493;-35
2022/06/09 06:59:36;;;;;;;27.42;13.88;;;;;;;19.37;92.59;98423.01;1807164;79;21456;-36
2022/06/09 07:02:03;;;;;;;19.85;13.98;;;;;;;19.38;92.90;98417.52;1807066;79;20960;-36
2022/06/09 07:04:28;;;;;;;17.82;14.13;;;;;;;19.39;93.39;98421.02;1807249;79;20979;-36
2022/06/09 07:06:56;;;;;;;18.30;13.78;;;;;;;19.43;92.86;98429.52;1804632;79;21035;-35
2022/06/09 07:09:22;;;;;;;22.25;14.07;;;;;;;19.46;92.54;98427.36;1791535;80;20975;-35
2022/06/09 07:11:48;;;;;;;20.17;14.10;;;;;;;19.47;92.05;98427.71;1791729;80;21019;-36
2022/06/09 07:14:13;;;;;;;25.12;14.23;;;;;;;19.50;92.34;98433.20;1791923;80;20987;-35
2022/06/09 07:16:39;;;;;;;23.15;14.87;;;;;;;19.50;92.06;98435.39;1791916;80;20994;-35
2022/06/09 07:19:06;;;;;;;19.60;14.28;;;;;;;19.52;92.18;98436.06;1791893;80;21030;-36
2022/06/09 07:21:32;;;;;;;17.75;13.85;;;;;;;19.54;91.76;98443.40;1791959;80;21027;-35
2022/06/09 07:23:59;;;;;;;22.90;15.45;;;;;;;19.59;92.15;98443.40;1791910;80;20987;-35
2022/06/09 07:26:26;;;;;;;20.02;15.65;;;;;;;19.66;92.01;98440.41;1792084;80;20979;-35
2022/06/09 07:28:52;;;;;;;20.77;15.98;;;;;;;19.72;91.94;98445.12;1792116;80;21556;-36
2022/06/09 07:31:18;;;;;;;24.50;15.88;;;;;;;19.76;91.79;98438.48;1792060;80;21019;-36
2022/06/09 07:33:44;;;;;;;20.70;16.93;;;;;;;19.80;92.22;98436.31;1792090;80;21026;-36
2022/06/09 07:36:15;;;;;;;17.35;15.28;;;;;;;19.87;91.49;98442.16;1792116;80;21030;-36
2022/06/09 07:38:41;;;;;;;19.32;15.88;;;;;;;19.91;91.54;98434.66;1792171;80;20959;-36
2022/06/09 07:41:07;;;;;;;20.48;16.42;;;;;;;20.02;92.15;98438.33;1792058;80;21166;-36
2022/06/09 07:43:33;;;;;;;16.95;14.15;;;;;;;20.17;91.86;98434.48;1790608;80;21053;-36
2022/06/09 07:45:59;;;;;;;22.05;15.13;;;;;;;20.23;90.91;98436.98;1788738;80;21508;-36
2022/06/09 07:48:25;;;;;;;18.25;14.85;;;;;;;20.32;90.66;98438.67;1788779;80;21042;-35
2022/06/09 07:50:52;;;;;;;17.23;14.75;;;;;;;20.41;90.58;98446.16;1788724;80;21368;-35
2022/06/09 07:53:21;;;;;;;18.30;15.32;;;;;;;20.50;90.20;98443.33;1788882;80;21441;-35
2022/06/09 07:55:48;;;;;;;18.37;14.53;;;;;;;20.60;89.94;98443.12;1788775;80;20951;-35
2022/06/09 07:58:16;;;;;;;16.82;14.60;;;;;;;20.68;88.96;98447.65;1788958;80;21002;-36
2022/06/09 08:00:42;;;;;;;25.48;14.83;;;;;;;20.74;88.96;98446.98;1788712;80;21469;-35
2022/06/09 08:03:11;;;;;;;16.42;14.25;;;;;;;20.82;89.13;98445.61;1788645;80;20995;-34
2022/06/09 08:05:37;;;;;;;21.75;14.78;;;;;;;20.83;88.51;98447.77;1788765;80;20987;-35
2022/06/09 08:08:05;;;;;;;15.63;13.90;;;;;;;20.81;88.00;98454.66;1788771;80;20978;-35
2022/06/09 08:10:31;;;;;;;16.70;13.90;;;;;;;20.83;88.08;98455.80;1788731;80;20991;-35
2022/06/09 08:13:00;;;;;;;18.15;15.00;;;;;;;20.82;88.06;98454.14;1788722;80;21473;-35
2022/06/09 08:15:27;;;;;;;19.62;13.90;;;;;;;20.82;87.94;98450.13;1788676;80;20983;-35
2022/06/09 08:17:55;;;;;;;17.82;15.28;;;;;;;20.78;87.64;98448.81;1788939;80;20991;-35
2022/06/09 08:20:22;;;;;;;16.75;14.98;;;;;;;20.82;87.81;98446.95;1788794;80;20994;-35
2022/06/09 08:22:48;;;;;;;16.77;14.53;;;;;;;20.82;87.88;98450.95;1788792;80;21003;-36
2022/06/09 08:25:18;;;;;;;22.73;15.63;;;;;;;20.74;87.61;98453.67;1788681;80;21002;-35
2022/06/09 08:27:44;;;;;;;21.37;15.28;;;;;;;20.75;87.83;98451.82;1788678;80;20995;-35
2022/06/09 08:30:14;;;;;;;15.95;14.23;;;;;;;20.75;88.25;98452.64;1788857;80;20994;-35
2022/06/09 08:32:40;;;;;;;18.45;14.33;;;;;;;20.81;88.02;98457.80;1788688;80;21030;-38
2022/06/09 08:35:10;;;;;;;15.40;13.75;;;;;;;20.81;88.05;98457.33;1788699;80;20990;-35
2022/06/09 08:37:37;;;;;;;18.48;15.32;;;;;;;20.81;88.24;98460.48;1788674;80;20995;-35
2022/06/09 08:40:06;;;;;;;17.40;14.90;;;;;;;20.84;88.32;98458.30;1788828;80;20991;-35
2022/06/09 08:43:08;;;;;;;15.55;13.75;;;;;;;20.93;88.58;98450.27;1788598;80;21023;-35
2022/06/09 08:45:37;;;;;;;20.48;13.62;;;;;;;21.05;88.35;98456.92;1788841;80;21500;-37
2022/06/09 08:48:08;;;;;;;17.95;13.08;;;;;;;21.21;88.43;98461.35;1788768;80;20952;-37
2022/06/09 08:50:46;;;;;;;14.90;12.73;;;;;;;21.38;89.03;98459.47;1788524;80;20971;-36
2022/06/09 08:53:17;;;;;;;19.35;12.75;;;;;;;21.63;88.35;98458.36;1788654;80;21050;-35
2022/06/09 08:55:53;;;;;;;14.38;11.83;;;;;;;21.95;87.73;98455.13;1788499;80;20964;-35
2022/06/09 08:58:36;;;;;;;17.23;12.43;;;;;;;22.08;85.34;98452.36;1764988;80;21030;-35
2022/06/09 09:01:14;;;;;;;14.28;12.43;;;;;;;22.15;85.49;98447.95;1788699;80;21484;-36
2022/06/09 09:04:03;;;;;;;13.20;11.80;;;;;;;22.32;84.46;98450.02;1788709;80;20998;-36
2022/06/09 09:06:37;;;;;;;14.18;8.98;;;;;;;22.55;86.03;98460.19;1787690;80;21194;-36
2022/06/09 09:09:16;;;;;;;13.68;9.95;;;;;;;22.77;84.32;98462.99;1788681;80;21030;-35
2022/06/09 09:12:12;;;;;;;11.48;9.58;;;;;;;22.87;82.86;98460.88;1788611;80;21029;-35
2022/06/09 09:15:11;;;;;;;12.33;9.40;;;;;;;23.05;82.54;98465.06;1788666;80;20975;-36
2022/06/09 09:18:16;;;;;;;11.90;8.08;;;;;;;23.19;81.11;98473.12;1788636;80;21512;-36
2022/06/09 09:21:05;;;;;;;9.48;7.50;;;;;;;23.26;79.96;98469.17;1788727;80;20991;-36
2022/06/09 09:24:00;;;;;;;10.80;7.85;;;;;;;23.45;80.28;98464.23;1788595;80;21018;-36
2022/06/09 09:26:59;;;;;;;7.97;5.97;;;;;;;23.56;79.30;98471.83;1788583;80;21003;-36
2022/06/09 09:29:50;;;;;;;13.40;6.60;;;;;;;23.82;78.54;98470.50;1788747;80;21029;-36
2022/06/09 09:32:20;;;;;;;6.70;6.10;;;;;;;23.97;76.64;98468.58;1787826;80;20983;-36
2022/06/09 09:34:48;;;;;;;6.62;6.03;;;;;;;24.01;74.64;98463.66;1764449;80;21539;-35
2022/06/09 09:37:44;;;;;;;13.22;6.53;;;;;;;24.00;73.48;98466.86;1788612;80;20971;-36
2022/06/09 09:40:29;;;;;;;6.30;5.45;;;;;;;23.94;71.90;98474.34;1788384;80;20991;-36
2022/06/09 09:43:03;;;;;;;7.42;6.08;;;;;;;23.93;72.59;98474.84;1785077;80;20999;-37
2022/06/09 09:45:36;;;;;;;5.55;4.55;;;;;;;23.83;71.80;98472.14;1788375;80;21046;-36
2022/06/09 09:48:13;;;;;;;5.53;4.47;;;;;;;23.95;71.74;98473.31;1788652;80;21022;-36
2022/06/09 09:50:50;;;;;;;6.17;4.42;;;;;;;24.12;70.70;98473.39;1773328;80;20991;-38
2022/06/09 09:53:39;;;;;;;4.65;4.17;;;;;;;24.40;69.06;98465.06;1776727;79;21552;-38
2022/06/09 09:56:22;;;;;;;4.78;4.25;;;;;;;24.81;68.45;98469.72;1817496;79;21002;-37
2022/06/09 09:58:57;;;;;;;5.30;4.85;;;;;;;24.96;67.20;98473.64;1817579;79;20948;-37
2022/06/09 10:08:35;;;;;;;4.87;4.37;;;;;;;25.04;67.21;98471.63;1817529;79;20956;-36
2022/06/09 10:09:51;;;;;;;3.58;3.27;;;;;;;24.87;64.65;98483.22;1742905;79;21473;-37
2022/06/09 10:12:28;;;;;;;8.38;3.87;;;;;;;24.79;62.63;98482.02;1816189;79;20996;-35
2022/06/09 10:15:12;;;;;;;5.83;3.17;;;;;;;24.73;61.31;98481.47;1816907;79;21108;-35
2022/06/09 10:17:48;;;;;;;6.33;3.08;;;;;;;24.77;61.71;98478.70;1808466;79;20991;-36
2022/06/09 10:20:34;;;;;;;5.65;3.42;;;;;;;25.13;61.23;98482.24;1817573;79;21084;-36
2022/06/09 10:23:18;;;;;;;3.00;2.77;;;;;;;25.50;59.36;98479.64;1815256;79;20952;-35
2022/06/09 10:26:01;;;;;;;4.37;3.37;;;;;;;25.55;57.48;98483.91;1816763;79;21453;-35
2022/06/09 10:28:44;;;;;;;4.12;3.40;;;;;;;25.45;57.20;98492.37;1800363;79;20967;-34
2022/06/09 10:31:24;;;;;;;3.87;3.30;;;;;;;24.99;53.64;98492.08;1816451;79;20940;-34
2022/06/09 10:34:05;;;;;;;9.63;3.70;;;;;;;25.27;58.84;98492.91;1816093;79;21026;-34
2022/06/09 10:37:11;;;;;;;4.15;3.75;;;;;;;25.43;58.37;98489.55;1816618;79;20966;-34
2022/06/09 10:39:50;;;;;;;3.65;3.30;;;;;;;25.63;57.92;98491.83;1816128;79;20983;-34
2022/06/09 10:42:54;;;;;;;4.50;3.90;;;;;;;26.05;57.52;98491.25;1816542;79;21551;-34
2022/06/09 10:45:26;;;;;;;4.78;4.15;;;;;;;26.19;57.16;98487.22;1807416;79;21513;-35
2022/06/09 10:56:57;;;;;;;6.00;4.25;;;;;;;27.94;54.02;98476.75;1792684;79;20968;-36
2022/06/09 10:59:34;;;;;;;4.85;3.95;;;;;;;28.50;54.46;98474.27;1797874;79;21014;-37
2022/06/09 11:02:01;;;;;;;3.90;3.58;;;;;;;28.64;51.46;98458.79;1773831;79;21100;-36
2022/06/09 11:04:32;;;;;;;4.20;3.77;;;;;;;29.02;51.10;98459.97;1807455;79;21006;-35
2022/06/09 11:07:12;;;;;;;6.45;3.98;;;;;;;29.75;51.18;98465.08;1809086;79;21523;-36
2022/06/09 11:09:53;;;;;;;6.15;4.47;;;;;;;30.14;48.95;98462.83;1801406;79;20983;-37
2022/06/09 11:12:34;;;;;;;4.22;3.92;;;;;;;30.17;47.11;98450.17;1804488;79;21027;-37
2022/06/09 11:15:27;;;;;;;4.58;4.17;;;;;;;30.85;47.18;98453.44;1791741;79;21011;-36
2022/06/09 11:18:19;;;;;;;4.37;3.98;;;;;;;31.55;45.02;98439.48;1722778;82;21510;-36
2022/06/09 11:21:20;;;;;;;4.00;3.55;;;;;;;31.55;45.02;98439.48;1691932;82;21008;-38
2022/06/09 11:24:03;;;;;;;3.30;3.05;;;;;;;30.36;44.21;98436.55;1693203;84;21628;-37
2022/06/09 11:26:47;;;;;;;6.50;3.35;;;;;;;30.36;44.21;98436.55;1731206;82;20997;-33
2022/06/09 11:29:40;;;;;;;4.42;4.12;;;;;;;30.04;43.80;98443.61;1705666;82;21145;-35
2022/06/09 11:32:38;;;;;;;5.92;4.85;;;;;;;29.02;45.85;98449.14;1710839;82;20986;-36
2022/06/09 11:35:30;;;;;;;7.75;5.37;;;;;;;28.49;47.17;98442.34;1708512;82;20996;-38
2022/06/09 11:38:19;;;;;;;20.65;7.80;;;;;;;28.13;48.25;98443.05;1707749;83;21033;-36
2022/06/09 11:41:19;;;;;;;13.58;5.78;;;;;;;27.94;49.70;98448.38;1731027;82;21045;-35
2022/06/09 11:44:02;;;;;;;8.13;5.75;;;;;;;27.75;49.36;98458.75;1727619;82;21126;-36
2022/06/09 11:46:34;;;;;;;10.82;6.22;;;;;;;27.37;50.23;98454.14;1692820;85;21604;-35
2022/06/09 11:49:05;;;;;;;7.70;5.50;;;;;;;27.14;51.35;98455.95;1710008;82;21051;-35
2022/06/09 11:51:33;;;;;;;7.78;5.72;;;;;;;26.91;52.41;98456.45;1734618;80;21052;-36
2022/06/09 11:54:04;;;;;;;8.90;7.60;;;;;;;26.84;52.02;98445.66;1790775;79;20977;-36
2022/06/09 11:56:40;;;;;;;10.70;7.33;;;;;;;26.83;52.60;98442.64;1797799;78;20917;-35
2022/06/09 11:59:18;;;;;;;17.32;7.90;;;;;;;26.72;53.92;98436.55;1819682;78;20964;-35
2022/06/09 12:02:08;;;;;;;9.18;8.28;;;;;;;26.67;54.26;98437.19;1774064;78;20957;-36
2022/06/09 12:05:08;;;;;;;11.90;8.03;;;;;;;26.56;54.84;98438.63;1824467;78;20983;-37
2022/06/09 12:08:03;;;;;;;7.53;6.83;;;;;;;26.58;54.73;98439.23;1780248;78;21012;-38
2022/06/09 12:10:51;;;;;;;8.58;7.67;;;;;;;27.02;54.25;98441.48;1781972;78;20992;-36
2022/06/09 12:13:25;;;;;;;10.08;7.40;;;;;;;27.43;53.93;98445.17;1825509;78;21047;-37
2022/06/09 12:16:02;;;;;;;8.23;7.12;;;;;;;27.33;54.27;98448.34;1825592;78;21028;-36
2022/06/09 12:18:34;;;;;;;10.95;7.30;;;;;;;27.13;54.10;98455.13;1825604;78;21040;-36
2022/06/09 12:21:16;;;;;;;12.37;8.23;;;;;;;26.87;54.89;98457.88;1825155;78;21034;-36
2022/06/09 12:23:56;;;;;;;10.75;7.85;;;;;;;26.62;55.39;98454.52;1814961;78;21767;-36
2022/06/09 12:26:43;;;;;;;28.47;9.10;;;;;;;26.47;55.51;98451.16;1825412;78;21035;-36
2022/06/09 12:29:39;;;;;;;14.98;8.83;;;;;;;26.33;57.02;98440.38;1808742;78;21406;-37
2022/06/09 12:32:18;;;;;;;13.45;8.93;;;;;;;26.14;58.54;98452.83;1812214;78;20964;-36
2022/06/09 12:34:51;;;;;;;11.97;9.83;;;;;;;25.82;60.73;98458.43;1814855;78;20978;-36
2022/06/09 12:37:31;;;;;;;13.25;10.68;;;;;;;25.58;62.00;98467.37;1814101;79;20987;-37
2022/06/09 12:40:08;;;;;;;16.27;11.12;;;;;;;25.34;63.94;98470.56;1822371;79;21598;-36
2022/06/09 12:43:08;;;;;;;14.47;12.13;;;;;;;25.06;64.77;98472.78;1786926;78;21450;-36
2022/06/09 12:45:37;;;;;;;14.60;12.93;;;;;;;24.82;66.12;98470.88;1750046;80;21089;-36
2022/06/09 12:48:16;;;;;;;16.30;13.22;;;;;;;24.61;66.42;98474.44;1784426;80;21479;-36
2022/06/09 12:50:48;;;;;;;19.40;14.03;;;;;;;24.38;68.40;98470.63;1783798;80;21917;-36
2022/06/09 12:53:28;;;;;;;21.80;15.60;;;;;;;24.20;70.46;98468.91;1784004;80;21018;-37
2022/06/09 12:55:59;;;;;;;16.17;14.00;;;;;;;24.05;70.84;98463.09;1783253;80;20970;-36
2022/06/09 12:58:33;;;;;;;22.87;16.00;;;;;;;23.91;71.31;98463.98;1783864;80;21868;-37
2022/06/09 13:01:04;;;;;;;17.60;15.80;;;;;;;23.74;73.25;98463.37;1783731;80;20986;-37
2022/06/09 13:03:56;;;;;;;19.98;16.00;;;;;;;23.64;73.83;98462.31;1783995;80;21014;-37
2022/06/09 13:06:27;;;;;;;24.45;17.10;;;;;;;23.59;73.26;98462.04;1783663;80;21058;-36
2022/06/09 13:08:58;;;;;;;21.30;17.25;;;;;;;23.52;76.23;98462.47;1783402;80;21033;-36
2022/06/09 13:14:24;;;;;;;22.77;17.12;;;;;;;23.52;77.56;98461.13;1784042;80;21001;-35
2022/06/09 13:16:54;;;;;;;18.75;16.75;;;;;;;23.59;76.77;98456.67;1784042;80;21006;-35
2022/06/09 13:19:24;;;;;;;22.82;18.23;;;;;;;23.67;76.37;98452.55;1783867;80;20986;-35
2022/06/09 13:21:51;;;;;;;19.45;17.37;;;;;;;23.84;77.89;98463.91;1784133;80;20963;-35
2022/06/09 13:24:35;;;;;;;21.33;16.97;;;;;;;23.99;78.00;98454.44;1784228;80;21005;-36
2022/06/09 13:27:04;;;;;;;30.75;16.55;;;;;;;24.12;78.21;98454.59;1783094;80;21590;-35
2022/06/09 13:29:35;;;;;;;18.30;15.93;;;;;;;24.16;77.58;98453.70;1794568;78;20980;-37
2022/06/09 13:32:29;;;;;;;16.80;14.95;;;;;;;24.17;77.79;98451.31;1824729;78;21164;-40
2022/06/09 13:35:00;;;;;;;13.85;11.97;;;;;;;24.21;77.64;98444.52;1825637;78;20992;-35
2022/06/09 13:37:43;;;;;;;13.22;10.70;;;;;;;24.20;76.79;98447.42;1825452;78;20948;-35
2022/06/09 13:40:20;;;;;;;11.53;10.43;;;;;;;24.14;75.94;98467.31;1825600;78;20964;-35
2022/06/09 13:42:59;;;;;;;11.40;10.07;;;;;;;24.14;74.44;98474.03;1825799;78;21062;-34
2022/06/09 13:45:32;;;;;;;11.70;10.03;;;;;;;24.10;73.76;98486.67;1825340;78;21483;-36
2022/06/09 13:48:18;;;;;;;11.40;9.78;;;;;;;24.06;74.37;98491.59;1825632;78;20968;-37
2022/06/09 13:50:49;;;;;;;10.53;9.37;;;;;;;23.93;74.41;98497.66;1825608;78;21004;-37
2022/06/09 13:53:30;;;;;;;9.83;8.83;;;;;;;23.86;73.82;98497.28;1820325;78;21472;-37
2022/06/09 13:55:57;;;;;;;12.88;10.00;;;;;;;23.79;72.59;98494.48;1825677;78;21015;-36
2022/06/09 13:58:23;;;;;;;12.15;10.85;;;;;;;23.73;72.61;98492.56;1825634;78;21066;-36
2022/06/09 14:01:00;;;;;;;12.23;11.07;;;;;;;23.66;72.66;98492.47;1826209;78;20957;-36
2022/06/09 14:03:31;;;;;;;13.13;10.80;;;;;;;23.64;73.31;98492.35;1823316;78;21004;-36
2022/06/09 14:06:05;;;;;;;13.78;12.30;;;;;;;23.60;73.57;98489.73;1825521;78;20984;-36
2022/06/09 14:08:35;;;;;;;13.65;12.35;;;;;;;23.53;74.12;98496.34;1825758;78;20953;-36
2022/06/09 14:11:01;;;;;;;14.38;12.98;;;;;;;23.45;74.07;98494.61;1825049;78;20971;-36
2022/06/09 14:13:27;;;;;;;16.93;13.85;;;;;;;23.36;75.32;98497.89;1825712;78;20983;-37
2022/06/09 14:15:53;;;;;;;15.23;13.28;;;;;;;23.27;75.81;98488.28;1825602;78;20979;-37
2022/06/09 14:18:26;;;;;;;17.45;14.63;;;;;;;23.24;75.94;98487.31;1825996;78;20998;-36
2022/06/09 14:20:57;;;;;;;18.35;13.35;;;;;;;23.15;76.43;98477.17;1824300;78;20986;-36
2022/06/09 14:23:31;;;;;;;18.30;14.70;;;;;;;23.13;76.63;98469.01;1825315;78;20990;-37
2022/06/09 14:26:05;;;;;;;18.50;14.43;;;;;;;23.11;77.56;98465.68;1825514;78;20959;-37
2022/06/09 14:28:34;;;;;;;16.05;13.53;;;;;;;22.96;78.88;98466.48;1825508;78;21433;-38
2022/06/09 14:31:00;;;;;;;17.57;14.38;;;;;;;22.98;77.72;98468.47;1825544;78;20974;-37
2022/06/09 14:33:27;;;;;;;17.00;14.03;;;;;;;22.96;78.16;98470.50;1825689;78;20966;-37
2022/06/09 14:35:55;;;;;;;21.75;16.73;;;;;;;22.96;78.06;98462.98;1825363;78;20982;-38
2022/06/09 14:38:21;;;;;;;27.17;21.73;;;;;;;22.98;78.42;98460.94;1825330;78;20998;-36
2022/06/09 14:40:51;;;;;;;41.28;32.60;;;;;;;23.00;80.04;98458.90;1825629;78;21515;-38
2022/06/09 14:43:17;;;;;;;25.60;15.68;;;;;;;23.01;79.19;98467.25;1825379;78;20963;-37
2022/06/09 14:45:47;;;;;;;17.20;14.33;;;;;;;22.97;79.56;98469.98;1813955;78;21555;-39
2022/06/09 14:48:17;;;;;;;16.60;14.78;;;;;;;22.91;80.01;98464.03;1805952;79;20991;-36
2022/06/09 14:50:43;;;;;;;18.00;15.10;;;;;;;22.84;79.87;98465.27;1806367;78;21018;-36
2022/06/09 14:53:15;;;;;;;17.00;14.68;;;;;;;22.77;80.07;98469.69;1821788;79;20992;-38
2022/06/09 14:55:42;;;;;;;16.55;14.33;;;;;;;22.73;79.61;98481.29;1822734;79;20957;-36
2022/06/09 14:58:12;;;;;;;17.57;14.53;;;;;;;22.67;79.88;98484.70;1821968;78;21047;-36
2022/06/09 15:00:38;;;;;;;16.65;14.75;;;;;;;22.65;79.49;98481.38;1822488;79;20988;-36